sensor_id;sensor_type;location;lat;lon;timestamp;temperature;humidity
72756;SHT30;60881;55.002;73.232;2022-10-17T00:00:52;7.16;79.74
72756;SHT30;60881;55.002;73.232;2022-10-17T00:03:19;7.09;79.82
72756;SHT30;60881;55.002;73.232;2022-10-17T00:05:47;7.08;80.13
72756;SHT30;60881;55.002;73.232;2022-10-17T00:08:16;7.11;80.07
72756;SHT30;60881;55.002;73.232;2022-10-17T00:10:43;7.08;80.29
72756;SHT30;60881;55.002;73.232;2022-10-17T00:13:10;7.12;80.19
72756;SHT30;60881;55.002;73.232;2022-10-17T00:15:37;7.18;80.23
72756;SHT30;60881;55.002;73.232;2022-10-17T00:18:05;7.20;80.36
72756;SHT30;60881;55.002;73.232;2022-10-17T00:20:34;7.24;80.39
72756;SHT30;60881;55.002;73.232;2022-10-17T00:23:01;7.30;80.06
72756;SHT30;60881;55.002;73.232;2022-10-17T00:25:27;7.32;79.91
72756;SHT30;60881;55.002;73.232;2022-10-17T00:27:53;7.32;79.74
72756;SHT30;60881;55.002;73.232;2022-10-17T00:30:32;7.32;79.89
72756;SHT30;60881;55.002;73.232;2022-10-17T00:32:59;7.36;79.48
72756;SHT30;60881;55.002;73.232;2022-10-17T00:35:31;7.33;79.11
72756;SHT30;60881;55.002;73.232;2022-10-17T00:37:58;7.29;79.24
72756;SHT30;60881;55.002;73.232;2022-10-17T00:40:25;7.30;79.16
72756;SHT30;60881;55.002;73.232;2022-10-17T00:42:51;7.27;79.13
72756;SHT30;60881;55.002;73.232;2022-10-17T00:45:22;7.24;79.10
72756;SHT30;60881;55.002;73.232;2022-10-17T00:48:01;7.20;79.62
72756;SHT30;60881;55.002;73.232;2022-10-17T00:50:29;7.19;79.94
72756;SHT30;60881;55.002;73.232;2022-10-17T00:52:58;7.22;80.54
72756;SHT30;60881;55.002;73.232;2022-10-17T00:55:29;7.19;80.96
72756;SHT30;60881;55.002;73.232;2022-10-17T00:58:07;7.23;80.94
72756;SHT30;60881;55.002;73.232;2022-10-17T01:00:34;7.24;81.35
72756;SHT30;60881;55.002;73.232;2022-10-17T01:03:03;7.19;82.15
72756;SHT30;60881;55.002;73.232;2022-10-17T01:05:30;7.26;82.83
72756;SHT30;60881;55.002;73.232;2022-10-17T01:07:56;7.30;82.77
72756;SHT30;60881;55.002;73.232;2022-10-17T01:10:37;7.33;83.35
72756;SHT30;60881;55.002;73.232;2022-10-17T01:13:24;7.34;83.55
72756;SHT30;60881;55.002;73.232;2022-10-17T01:18:57;7.47;83.38
72756;SHT30;60881;55.002;73.232;2022-10-17T01:21:39;7.52;83.30
72756;SHT30;60881;55.002;73.232;2022-10-17T01:24:15;7.57;83.16
72756;SHT30;60881;55.002;73.232;2022-10-17T01:27:22;7.59;83.26
72756;SHT30;60881;55.002;73.232;2022-10-17T01:30:24;7.66;83.12
72756;SHT30;60881;55.002;73.232;2022-10-17T01:32:57;7.69;82.86
72756;SHT30;60881;55.002;73.232;2022-10-17T01:35:39;7.70;82.78
72756;SHT30;60881;55.002;73.232;2022-10-17T01:38:24;7.73;82.75
72756;SHT30;60881;55.002;73.232;2022-10-17T01:41:13;7.77;82.69
72756;SHT30;60881;55.002;73.232;2022-10-17T01:43:46;7.84;82.41
72756;SHT30;60881;55.002;73.232;2022-10-17T01:46:22;7.91;82.19
72756;SHT30;60881;55.002;73.232;2022-10-17T01:48:51;7.93;81.95
72756;SHT30;60881;55.002;73.232;2022-10-17T01:51:26;7.91;82.00
72756;SHT30;60881;55.002;73.232;2022-10-17T01:53:59;7.93;81.90
72756;SHT30;60881;55.002;73.232;2022-10-17T01:56:30;7.98;81.90
72756;SHT30;60881;55.002;73.232;2022-10-17T01:59:03;7.94;82.00
72756;SHT30;60881;55.002;73.232;2022-10-17T02:01:33;7.97;81.72
72756;SHT30;60881;55.002;73.232;2022-10-17T02:04:00;8.03;81.67
72756;SHT30;60881;55.002;73.232;2022-10-17T02:06:33;8.01;81.36
72756;SHT30;60881;55.002;73.232;2022-10-17T02:09:24;8.03;81.42
72756;SHT30;60881;55.002;73.232;2022-10-17T02:15:09;8.03;81.29
72756;SHT30;60881;55.002;73.232;2022-10-17T02:23:22;8.05;81.39
72756;SHT30;60881;55.002;73.232;2022-10-17T02:28:46;8.05;81.48
72756;SHT30;60881;55.002;73.232;2022-10-17T02:31:21;8.04;81.45
72756;SHT30;60881;55.002;73.232;2022-10-17T02:34:04;8.03;81.55
72756;SHT30;60881;55.002;73.232;2022-10-17T02:36:46;8.07;81.60
72756;SHT30;60881;55.002;73.232;2022-10-17T02:39:19;8.11;81.48
72756;SHT30;60881;55.002;73.232;2022-10-17T02:41:49;8.13;81.51
72756;SHT30;60881;55.002;73.232;2022-10-17T02:44:18;8.17;81.37
72756;SHT30;60881;55.002;73.232;2022-10-17T02:46:51;8.17;81.45
72756;SHT30;60881;55.002;73.232;2022-10-17T02:49:30;8.15;81.39
72756;SHT30;60881;55.002;73.232;2022-10-17T02:52:39;8.13;81.45
72756;SHT30;60881;55.002;73.232;2022-10-17T02:55:15;8.14;81.43
72756;SHT30;60881;55.002;73.232;2022-10-17T02:57:56;8.15;81.34
72756;SHT30;60881;55.002;73.232;2022-10-17T03:00:25;8.20;81.19
72756;SHT30;60881;55.002;73.232;2022-10-17T03:02:52;8.24;81.33
72756;SHT30;60881;55.002;73.232;2022-10-17T03:05:27;8.25;81.14
72756;SHT30;60881;55.002;73.232;2022-10-17T03:07:55;8.17;81.47
72756;SHT30;60881;55.002;73.232;2022-10-17T03:10:23;8.17;81.66
72756;SHT30;60881;55.002;73.232;2022-10-17T03:12:53;8.21;81.55
72756;SHT30;60881;55.002;73.232;2022-10-17T03:15:20;8.27;81.39
72756;SHT30;60881;55.002;73.232;2022-10-17T03:17:48;8.31;81.52
72756;SHT30;60881;55.002;73.232;2022-10-17T03:20:16;8.35;81.21
72756;SHT30;60881;55.002;73.232;2022-10-17T03:22:42;8.37;80.97
72756;SHT30;60881;55.002;73.232;2022-10-17T03:25:09;8.41;81.00
72756;SHT30;60881;55.002;73.232;2022-10-17T03:27:36;8.42;81.05
72756;SHT30;60881;55.002;73.232;2022-10-17T03:30:02;8.44;80.96
72756;SHT30;60881;55.002;73.232;2022-10-17T03:32:34;8.40;80.82
72756;SHT30;60881;55.002;73.232;2022-10-17T03:35:01;8.37;80.91
72756;SHT30;60881;55.002;73.232;2022-10-17T03:37:28;8.41;80.85
72756;SHT30;60881;55.002;73.232;2022-10-17T03:40:06;8.38;80.91
72756;SHT30;60881;55.002;73.232;2022-10-17T03:42:33;8.41;80.64
72756;SHT30;60881;55.002;73.232;2022-10-17T03:45:00;8.47;80.59
72756;SHT30;60881;55.002;73.232;2022-10-17T03:47:27;8.52;80.64
72756;SHT30;60881;55.002;73.232;2022-10-17T03:49:55;8.48;79.63
72756;SHT30;60881;55.002;73.232;2022-10-17T03:52:21;8.47;80.35
72756;SHT30;60881;55.002;73.232;2022-10-17T03:54:49;8.38;80.35
72756;SHT30;60881;55.002;73.232;2022-10-17T03:57:18;8.37;80.03
72756;SHT30;60881;55.002;73.232;2022-10-17T03:59:45;8.38;80.08
72756;SHT30;60881;55.002;73.232;2022-10-17T04:02:18;8.38;79.60
72756;SHT30;60881;55.002;73.232;2022-10-17T04:04:45;8.35;79.63
72756;SHT30;60881;55.002;73.232;2022-10-17T04:07:12;8.35;78.87
72756;SHT30;60881;55.002;73.232;2022-10-17T04:09:42;8.34;79.11
72756;SHT30;60881;55.002;73.232;2022-10-17T04:12:17;8.34;79.40
72756;SHT30;60881;55.002;73.232;2022-10-17T04:14:44;8.38;78.99
72756;SHT30;60881;55.002;73.232;2022-10-17T04:17:11;8.40;78.99
72756;SHT30;60881;55.002;73.232;2022-10-17T04:19:38;8.44;78.75
72756;SHT30;60881;55.002;73.232;2022-10-17T04:22:05;8.41;78.27
72756;SHT30;60881;55.002;73.232;2022-10-17T04:24:37;8.44;77.39
72756;SHT30;60881;55.002;73.232;2022-10-17T04:27:07;8.41;77.75
72756;SHT30;60881;55.002;73.232;2022-10-17T04:29:39;8.52;77.71
72756;SHT30;60881;55.002;73.232;2022-10-17T04:32:12;8.64;77.24
72756;SHT30;60881;55.002;73.232;2022-10-17T04:34:49;8.71;77.12
72756;SHT30;60881;55.002;73.232;2022-10-17T04:37:18;8.72;77.32
72756;SHT30;60881;55.002;73.232;2022-10-17T04:39:46;8.73;77.53
72756;SHT30;60881;55.002;73.232;2022-10-17T04:42:12;8.72;77.88
72756;SHT30;60881;55.002;73.232;2022-10-17T04:44:40;8.78;77.28
72756;SHT30;60881;55.002;73.232;2022-10-17T04:47:08;8.73;77.08
72756;SHT30;60881;55.002;73.232;2022-10-17T04:49:34;8.75;77.14
72756;SHT30;60881;55.002;73.232;2022-10-17T04:52:08;8.69;77.04
72756;SHT30;60881;55.002;73.232;2022-10-17T04:54:53;8.69;77.31
72756;SHT30;60881;55.002;73.232;2022-10-17T04:57:20;8.73;77.72
72756;SHT30;60881;55.002;73.232;2022-10-17T04:59:54;8.78;76.53
72756;SHT30;60881;55.002;73.232;2022-10-17T05:02:44;8.92;76.24
72756;SHT30;60881;55.002;73.232;2022-10-17T05:05:11;9.09;75.91
72756;SHT30;60881;55.002;73.232;2022-10-17T05:07:41;9.18;75.37
72756;SHT30;60881;55.002;73.232;2022-10-17T05:10:13;9.26;75.29
72756;SHT30;60881;55.002;73.232;2022-10-17T05:12:46;9.26;74.32
72756;SHT30;60881;55.002;73.232;2022-10-17T05:15:13;9.36;75.17
72756;SHT30;60881;55.002;73.232;2022-10-17T05:17:41;9.47;74.49
72756;SHT30;60881;55.002;73.232;2022-10-17T05:20:08;9.59;74.11
72756;SHT30;60881;55.002;73.232;2022-10-17T05:22:37;9.71;74.15
72756;SHT30;60881;55.002;73.232;2022-10-17T05:25:05;9.91;73.87
72756;SHT30;60881;55.002;73.232;2022-10-17T05:27:32;9.97;72.72
72756;SHT30;60881;55.002;73.232;2022-10-17T05:29:58;9.94;73.24
72756;SHT30;60881;55.002;73.232;2022-10-17T05:32:38;9.89;72.62
72756;SHT30;60881;55.002;73.232;2022-10-17T05:35:05;9.81;73.00
72756;SHT30;60881;55.002;73.232;2022-10-17T05:37:32;9.74;73.41
72756;SHT30;60881;55.002;73.232;2022-10-17T05:40:03;9.64;73.65
72756;SHT30;60881;55.002;73.232;2022-10-17T05:42:31;9.56;72.76
72756;SHT30;60881;55.002;73.232;2022-10-17T05:44:58;9.46;73.38
72756;SHT30;60881;55.002;73.232;2022-10-17T05:47:31;9.42;73.96
72756;SHT30;60881;55.002;73.232;2022-10-17T05:49:58;9.40;74.19
72756;SHT30;60881;55.002;73.232;2022-10-17T05:52:32;9.42;74.50
72756;SHT30;60881;55.002;73.232;2022-10-17T05:55:07;9.49;74.06
72756;SHT30;60881;55.002;73.232;2022-10-17T05:57:34;9.56;73.78
72756;SHT30;60881;55.002;73.232;2022-10-17T06:00:03;9.60;72.86
72756;SHT30;60881;55.002;73.232;2022-10-17T06:02:40;9.69;73.47
72756;SHT30;60881;55.002;73.232;2022-10-17T06:05:13;9.76;72.51
72756;SHT30;60881;55.002;73.232;2022-10-17T06:07:52;9.87;71.26
72756;SHT30;60881;55.002;73.232;2022-10-17T06:10:24;9.97;70.58
72756;SHT30;60881;55.002;73.232;2022-10-17T06:12:52;10.05;70.61
72756;SHT30;60881;55.002;73.232;2022-10-17T06:15:29;10.07;69.86
72756;SHT30;60881;55.002;73.232;2022-10-17T06:18:01;10.03;69.53
72756;SHT30;60881;55.002;73.232;2022-10-17T06:20:27;10.00;69.30
72756;SHT30;60881;55.002;73.232;2022-10-17T06:22:54;10.04;70.17
72756;SHT30;60881;55.002;73.232;2022-10-17T06:25:45;10.05;69.56
72756;SHT30;60881;55.002;73.232;2022-10-17T06:28:12;10.05;70.31
72756;SHT30;60881;55.002;73.232;2022-10-17T06:30:41;10.07;69.13
72756;SHT30;60881;55.002;73.232;2022-10-17T06:33:08;10.04;69.35
72756;SHT30;60881;55.002;73.232;2022-10-17T06:35:35;10.03;69.95
72756;SHT30;60881;55.002;73.232;2022-10-17T06:38:03;10.04;69.82
72756;SHT30;60881;55.002;73.232;2022-10-17T06:40:35;10.15;69.72
72756;SHT30;60881;55.002;73.232;2022-10-17T06:43:02;10.22;69.64
72756;SHT30;60881;55.002;73.232;2022-10-17T06:45:55;10.34;68.82
72756;SHT30;60881;55.002;73.232;2022-10-17T06:48:31;10.44;68.71
72756;SHT30;60881;55.002;73.232;2022-10-17T06:51:14;10.57;67.87
72756;SHT30;60881;55.002;73.232;2022-10-17T06:53:47;10.50;67.84
72756;SHT30;60881;55.002;73.232;2022-10-17T06:56:48;10.44;67.69
72756;SHT30;60881;55.002;73.232;2022-10-17T06:59:38;10.44;67.15
72756;SHT30;60881;55.002;73.232;2022-10-17T07:02:16;10.40;67.91
72756;SHT30;60881;55.002;73.232;2022-10-17T07:04:45;10.33;68.32
72756;SHT30;60881;55.002;73.232;2022-10-17T07:07:17;10.33;69.13
72756;SHT30;60881;55.002;73.232;2022-10-17T07:09:46;10.40;68.37
72756;SHT30;60881;55.002;73.232;2022-10-17T07:12:14;10.36;68.54
72756;SHT30;60881;55.002;73.232;2022-10-17T07:14:45;10.33;67.94
72756;SHT30;60881;55.002;73.232;2022-10-17T07:17:23;10.24;67.54
72756;SHT30;60881;55.002;73.232;2022-10-17T07:19:50;10.18;67.99
72756;SHT30;60881;55.002;73.232;2022-10-17T07:22:17;10.34;67.34
72756;SHT30;60881;55.002;73.232;2022-10-17T07:24:47;10.45;66.84
72756;SHT30;60881;55.002;73.232;2022-10-17T07:27:31;10.45;64.17
72756;SHT30;60881;55.002;73.232;2022-10-17T07:29:58;10.37;64.47
72756;SHT30;60881;55.002;73.232;2022-10-17T07:32:40;10.30;64.11
72756;SHT30;60881;55.002;73.232;2022-10-17T07:35:09;10.33;64.98
72756;SHT30;60881;55.002;73.232;2022-10-17T07:37:41;10.27;65.09
72756;SHT30;60881;55.002;73.232;2022-10-17T07:40:09;10.28;65.74
72756;SHT30;60881;55.002;73.232;2022-10-17T07:42:37;10.31;66.04
72756;SHT30;60881;55.002;73.232;2022-10-17T07:45:06;10.33;66.14
72756;SHT30;60881;55.002;73.232;2022-10-17T07:47:33;10.25;66.52
72756;SHT30;60881;55.002;73.232;2022-10-17T07:50:09;10.27;66.93
72756;SHT30;60881;55.002;73.232;2022-10-17T07:52:36;10.28;67.00
72756;SHT30;60881;55.002;73.232;2022-10-17T07:55:03;10.30;66.27
72756;SHT30;60881;55.002;73.232;2022-10-17T07:57:29;10.30;66.69
72756;SHT30;60881;55.002;73.232;2022-10-17T07:59:57;10.33;66.69
72756;SHT30;60881;55.002;73.232;2022-10-17T08:02:26;10.41;66.28
72756;SHT30;60881;55.002;73.232;2022-10-17T08:04:52;10.44;65.84
72756;SHT30;60881;55.002;73.232;2022-10-17T08:07:24;10.47;65.93
72756;SHT30;60881;55.002;73.232;2022-10-17T08:09:51;10.38;63.95
72756;SHT30;60881;55.002;73.232;2022-10-17T08:12:18;10.36;64.39
72756;SHT30;60881;55.002;73.232;2022-10-17T08:14:45;10.33;65.17
72756;SHT30;60881;55.002;73.232;2022-10-17T08:17:13;10.14;65.54
72756;SHT30;60881;55.002;73.232;2022-10-17T08:19:39;9.95;69.34
72756;SHT30;60881;55.002;73.232;2022-10-17T08:22:16;9.66;70.66
72756;SHT30;60881;55.002;73.232;2022-10-17T08:24:42;9.30;70.84
72756;SHT30;60881;55.002;73.232;2022-10-17T08:27:10;9.13;72.46
72756;SHT30;60881;55.002;73.232;2022-10-17T08:29:39;9.01;74.05
72756;SHT30;60881;55.002;73.232;2022-10-17T08:32:07;8.79;75.16
72756;SHT30;60881;55.002;73.232;2022-10-17T08:34:35;8.61;75.62
72756;SHT30;60881;55.002;73.232;2022-10-17T08:37:01;8.64;76.13
72756;SHT30;60881;55.002;73.232;2022-10-17T08:39:28;8.64;76.02
72756;SHT30;60881;55.002;73.232;2022-10-17T08:42:02;8.76;76.26
72756;SHT30;60881;55.002;73.232;2022-10-17T08:44:57;8.86;75.62
72756;SHT30;60881;55.002;73.232;2022-10-17T08:47:32;8.92;75.74
72756;SHT30;60881;55.002;73.232;2022-10-17T08:50:08;8.85;74.31
72756;SHT30;60881;55.002;73.232;2022-10-17T08:52:52;8.89;75.17
72756;SHT30;60881;55.002;73.232;2022-10-17T08:55:37;8.93;76.06
72756;SHT30;60881;55.002;73.232;2022-10-17T08:58:34;8.83;76.48
72756;SHT30;60881;55.002;73.232;2022-10-17T09:01:33;8.91;76.62
72756;SHT30;60881;55.002;73.232;2022-10-17T09:04:26;8.93;76.38
72756;SHT30;60881;55.002;73.232;2022-10-17T09:07:15;9.03;76.52
72756;SHT30;60881;55.002;73.232;2022-10-17T09:10:03;8.91;77.12
72756;SHT30;60881;55.002;73.232;2022-10-17T09:12:49;8.91;76.95
72756;SHT30;60881;55.002;73.232;2022-10-17T09:15:44;8.88;76.33
72756;SHT30;60881;55.002;73.232;2022-10-17T09:18:30;9.02;75.48
72756;SHT30;60881;55.002;73.232;2022-10-17T09:21:11;9.11;75.10
72756;SHT30;60881;55.002;73.232;2022-10-17T09:23:48;9.29;72.96
72756;SHT30;60881;55.002;73.232;2022-10-17T09:26:17;9.42;73.08
72756;SHT30;60881;55.002;73.232;2022-10-17T09:28:50;9.40;72.61
72756;SHT30;60881;55.002;73.232;2022-10-17T09:32:18;9.42;73.36
72756;SHT30;60881;55.002;73.232;2022-10-17T09:34:16;9.51;73.49
72756;SHT30;60881;55.002;73.232;2022-10-17T09:36:43;9.56;73.52
72756;SHT30;60881;55.002;73.232;2022-10-17T09:39:17;9.60;74.55
72756;SHT30;60881;55.002;73.232;2022-10-17T09:41:53;9.59;73.59
72756;SHT30;60881;55.002;73.232;2022-10-17T09:47:20;9.74;73.59
72756;SHT30;60881;55.002;73.232;2022-10-17T09:49:49;9.74;73.67
72756;SHT30;60881;55.002;73.232;2022-10-17T09:57:20;9.44;72.44
72756;SHT30;60881;55.002;73.232;2022-10-17T10:00:04;9.15;69.33
72756;SHT30;60881;55.002;73.232;2022-10-17T10:02:39;8.85;70.43
72756;SHT30;60881;55.002;73.232;2022-10-17T10:05:19;8.67;71.59
72756;SHT30;60881;55.002;73.232;2022-10-17T10:08:13;8.55;72.38
72756;SHT30;60881;55.002;73.232;2022-10-17T10:10:42;8.48;73.47
72756;SHT30;60881;55.002;73.232;2022-10-17T10:13:18;8.45;73.64
72756;SHT30;60881;55.002;73.232;2022-10-17T10:15:49;8.48;73.74
72756;SHT30;60881;55.002;73.232;2022-10-17T10:18:34;8.54;73.40
72756;SHT30;60881;55.002;73.232;2022-10-17T10:23:33;8.67;73.67
72756;SHT30;60881;55.002;73.232;2022-10-17T10:26:04;8.68;72.92
72756;SHT30;60881;55.002;73.232;2022-10-17T10:28:35;8.71;72.42
72756;SHT30;60881;55.002;73.232;2022-10-17T10:31:05;8.72;72.65
72756;SHT30;60881;55.002;73.232;2022-10-17T10:33:35;8.61;71.68
72756;SHT30;60881;55.002;73.232;2022-10-17T10:36:04;8.62;72.85
72756;SHT30;60881;55.002;73.232;2022-10-17T10:38:34;8.75;72.02
72756;SHT30;60881;55.002;73.232;2022-10-17T10:41:07;8.73;71.74
72756;SHT30;60881;55.002;73.232;2022-10-17T10:43:45;8.83;71.60
72756;SHT30;60881;55.002;73.232;2022-10-17T10:46:22;8.89;72.46
72756;SHT30;60881;55.002;73.232;2022-10-17T10:49:02;8.88;73.17
72756;SHT30;60881;55.002;73.232;2022-10-17T10:51:42;8.78;74.63
72756;SHT30;60881;55.002;73.232;2022-10-17T10:54:16;8.89;74.96
72756;SHT30;60881;55.002;73.232;2022-10-17T10:56:49;8.91;75.14
72756;SHT30;60881;55.002;73.232;2022-10-17T11:01:55;8.98;75.52
72756;SHT30;60881;55.002;73.232;2022-10-17T11:04:37;9.05;76.25
72756;SHT30;60881;55.002;73.232;2022-10-17T11:07:31;8.86;72.22
72756;SHT30;60881;55.002;73.232;2022-10-17T11:10:22;8.72;72.93
72756;SHT30;60881;55.002;73.232;2022-10-17T11:15:56;8.64;72.86
72756;SHT30;60881;55.002;73.232;2022-10-17T11:18:32;8.61;73.51
72756;SHT30;60881;55.002;73.232;2022-10-17T11:26:42;8.57;73.35
72756;SHT30;60881;55.002;73.232;2022-10-17T11:29:11;8.58;73.71
72756;SHT30;60881;55.002;73.232;2022-10-17T11:31:43;8.65;73.33
72756;SHT30;60881;55.002;73.232;2022-10-17T11:34:25;8.64;73.09
72756;SHT30;60881;55.002;73.232;2022-10-17T11:37:04;8.64;73.58
72756;SHT30;60881;55.002;73.232;2022-10-17T11:39:48;8.41;73.77
72756;SHT30;60881;55.002;73.232;2022-10-17T11:42:24;8.42;74.65
72756;SHT30;60881;55.002;73.232;2022-10-17T11:44:59;8.49;74.92
72756;SHT30;60881;55.002;73.232;2022-10-17T11:47:57;8.51;75.84
72756;SHT30;60881;55.002;73.232;2022-10-17T11:50:30;8.37;76.09
72756;SHT30;60881;55.002;73.232;2022-10-17T11:53:22;8.38;75.98
72756;SHT30;60881;55.002;73.232;2022-10-17T11:55:52;8.28;75.87
72756;SHT30;60881;55.002;73.232;2022-10-17T12:01:28;8.34;76.53
72756;SHT30;60881;55.002;73.232;2022-10-17T12:07:01;8.37;75.40
72756;SHT30;60881;55.002;73.232;2022-10-17T12:12:41;8.24;75.03
72756;SHT30;60881;55.002;73.232;2022-10-17T12:17:45;8.08;74.90
72756;SHT30;60881;55.002;73.232;2022-10-17T12:25:51;7.93;76.21
72756;SHT30;60881;55.002;73.232;2022-10-17T12:28:22;7.90;76.03
72756;SHT30;60881;55.002;73.232;2022-10-17T12:38:51;7.62;77.91
72756;SHT30;60881;55.002;73.232;2022-10-17T12:46:54;7.56;77.65
72756;SHT30;60881;55.002;73.232;2022-10-17T12:49:49;7.47;77.90
72756;SHT30;60881;55.002;73.232;2022-10-17T13:00:24;7.43;78.67
72756;SHT30;60881;55.002;73.232;2022-10-17T13:03:25;7.39;78.92
72756;SHT30;60881;55.002;73.232;2022-10-17T13:05:56;7.39;78.10
72756;SHT30;60881;55.002;73.232;2022-10-17T13:08:30;7.39;78.31
72756;SHT30;60881;55.002;73.232;2022-10-17T13:11:03;7.42;78.13
72756;SHT30;60881;55.002;73.232;2022-10-17T13:13:41;7.39;78.13
72756;SHT30;60881;55.002;73.232;2022-10-17T13:19:16;7.33;78.12
72756;SHT30;60881;55.002;73.232;2022-10-17T13:21:53;7.27;78.87
72756;SHT30;60881;55.002;73.232;2022-10-17T13:24:35;7.30;78.45
72756;SHT30;60881;55.002;73.232;2022-10-17T13:27:03;7.33;78.28
72756;SHT30;60881;55.002;73.232;2022-10-17T13:29:30;7.36;78.79
72756;SHT30;60881;55.002;73.232;2022-10-17T13:31:59;7.34;78.01
72756;SHT30;60881;55.002;73.232;2022-10-17T13:34:32;7.36;77.89
72756;SHT30;60881;55.002;73.232;2022-10-17T13:37:05;7.30;78.46
72756;SHT30;60881;55.002;73.232;2022-10-17T13:39:37;7.33;78.58
72756;SHT30;60881;55.002;73.232;2022-10-17T13:42:28;7.33;78.03
72756;SHT30;60881;55.002;73.232;2022-10-17T13:44:57;7.29;78.28
72756;SHT30;60881;55.002;73.232;2022-10-17T13:47:27;7.33;78.19
72756;SHT30;60881;55.002;73.232;2022-10-17T13:49:56;7.27;78.61
72756;SHT30;60881;55.002;73.232;2022-10-17T13:52:26;7.24;78.46
72756;SHT30;60881;55.002;73.232;2022-10-17T13:54:54;7.23;78.15
72756;SHT30;60881;55.002;73.232;2022-10-17T13:57:29;7.19;78.20
72756;SHT30;60881;55.002;73.232;2022-10-17T13:59:59;7.18;78.45
72756;SHT30;60881;55.002;73.232;2022-10-17T14:02:30;7.23;78.35
72756;SHT30;60881;55.002;73.232;2022-10-17T14:05:02;7.24;77.88
72756;SHT30;60881;55.002;73.232;2022-10-17T14:10:26;7.37;77.14
72756;SHT30;60881;55.002;73.232;2022-10-17T14:13:00;7.37;77.11
72756;SHT30;60881;55.002;73.232;2022-10-17T14:15:33;7.37;76.87
72756;SHT30;60881;55.002;73.232;2022-10-17T14:18:07;7.27;77.56
72756;SHT30;60881;55.002;73.232;2022-10-17T14:20:45;7.29;77.41
72756;SHT30;60881;55.002;73.232;2022-10-17T14:23:34;7.24;77.58
72756;SHT30;60881;55.002;73.232;2022-10-17T14:28:30;7.18;78.30
72756;SHT30;60881;55.002;73.232;2022-10-17T14:33:47;7.12;78.32
72756;SHT30;60881;55.002;73.232;2022-10-17T14:36:15;7.12;78.14
72756;SHT30;60881;55.002;73.232;2022-10-17T14:38:50;7.03;78.54
72756;SHT30;60881;55.002;73.232;2022-10-17T14:41:23;7.03;78.77
72756;SHT30;60881;55.002;73.232;2022-10-17T14:43:56;7.02;78.32
72756;SHT30;60881;55.002;73.232;2022-10-17T14:46:30;7.08;78.16
72756;SHT30;60881;55.002;73.232;2022-10-17T14:49:05;7.09;78.19
72756;SHT30;60881;55.002;73.232;2022-10-17T14:51:38;7.16;77.86
72756;SHT30;60881;55.002;73.232;2022-10-17T14:54:25;7.23;77.87
72756;SHT30;60881;55.002;73.232;2022-10-17T14:56:55;7.32;77.25
72756;SHT30;60881;55.002;73.232;2022-10-17T14:59:22;7.34;77.13
72756;SHT30;60881;55.002;73.232;2022-10-17T15:01:51;7.36;77.17
72756;SHT30;60881;55.002;73.232;2022-10-17T15:04:17;7.39;76.94
72756;SHT30;60881;55.002;73.232;2022-10-17T15:06:57;7.37;76.78
72756;SHT30;60881;55.002;73.232;2022-10-17T15:09:24;7.34;77.02
72756;SHT30;60881;55.002;73.232;2022-10-17T15:12:01;7.36;76.71
72756;SHT30;60881;55.002;73.232;2022-10-17T15:14:37;7.37;76.65
72756;SHT30;60881;55.002;73.232;2022-10-17T15:17:13;7.30;76.93
72756;SHT30;60881;55.002;73.232;2022-10-17T15:19:40;7.34;76.95
72756;SHT30;60881;55.002;73.232;2022-10-17T15:22:08;7.33;76.88
72756;SHT30;60881;55.002;73.232;2022-10-17T15:24:35;7.36;76.98
72756;SHT30;60881;55.002;73.232;2022-10-17T15:27:19;7.32;77.43
72756;SHT30;60881;55.002;73.232;2022-10-17T15:29:56;7.32;77.24
72756;SHT30;60881;55.002;73.232;2022-10-17T15:32:24;7.30;77.42
72756;SHT30;60881;55.002;73.232;2022-10-17T15:34:51;7.32;77.26
72756;SHT30;60881;55.002;73.232;2022-10-17T15:37:23;7.23;77.51
72756;SHT30;60881;55.002;73.232;2022-10-17T15:39:53;7.20;77.57
72756;SHT30;60881;55.002;73.232;2022-10-17T15:42:25;7.19;77.60
72756;SHT30;60881;55.002;73.232;2022-10-17T15:44:52;7.24;77.51
72756;SHT30;60881;55.002;73.232;2022-10-17T15:47:30;7.20;77.60
72756;SHT30;60881;55.002;73.232;2022-10-17T15:50:01;7.22;77.26
72756;SHT30;60881;55.002;73.232;2022-10-17T15:52:33;7.16;77.72
72756;SHT30;60881;55.002;73.232;2022-10-17T15:54:59;7.22;77.43
72756;SHT30;60881;55.002;73.232;2022-10-17T15:57:34;7.29;77.22
72756;SHT30;60881;55.002;73.232;2022-10-17T16:00:09;7.19;77.40
72756;SHT30;60881;55.002;73.232;2022-10-17T16:02:36;7.20;77.36
72756;SHT30;60881;55.002;73.232;2022-10-17T16:07:52;7.13;77.43
72756;SHT30;60881;55.002;73.232;2022-10-17T16:10:19;7.05;77.57
72756;SHT30;60881;55.002;73.232;2022-10-17T16:12:47;7.02;77.82
72756;SHT30;60881;55.002;73.232;2022-10-17T16:15:26;7.02;77.64
72756;SHT30;60881;55.002;73.232;2022-10-17T16:17:55;6.96;77.82
72756;SHT30;60881;55.002;73.232;2022-10-17T16:20:24;7.00;77.79
72756;SHT30;60881;55.002;73.232;2022-10-17T16:22:52;7.09;77.57
72756;SHT30;60881;55.002;73.232;2022-10-17T16:25:27;7.16;77.31
72756;SHT30;60881;55.002;73.232;2022-10-17T16:27:55;7.15;77.17
72756;SHT30;60881;55.002;73.232;2022-10-17T16:30:23;7.19;77.13
72756;SHT30;60881;55.002;73.232;2022-10-17T16:32:52;7.19;76.99
72756;SHT30;60881;55.002;73.232;2022-10-17T16:35:27;7.19;77.41
72756;SHT30;60881;55.002;73.232;2022-10-17T16:37:55;7.19;76.99
72756;SHT30;60881;55.002;73.232;2022-10-17T16:40:23;7.12;77.33
72756;SHT30;60881;55.002;73.232;2022-10-17T16:42:51;7.12;77.41
72756;SHT30;60881;55.002;73.232;2022-10-17T16:45:20;7.09;77.65
72756;SHT30;60881;55.002;73.232;2022-10-17T16:47:53;7.08;77.65
72756;SHT30;60881;55.002;73.232;2022-10-17T16:50:23;7.05;77.98
72756;SHT30;60881;55.002;73.232;2022-10-17T16:52:51;6.99;77.99
72756;SHT30;60881;55.002;73.232;2022-10-17T16:55:18;6.95;78.09
72756;SHT30;60881;55.002;73.232;2022-10-17T16:57:48;6.91;78.31
72756;SHT30;60881;55.002;73.232;2022-10-17T17:00:15;6.95;78.33
72756;SHT30;60881;55.002;73.232;2022-10-17T17:02:48;6.95;78.25
72756;SHT30;60881;55.002;73.232;2022-10-17T17:05:20;6.96;78.16
72756;SHT30;60881;55.002;73.232;2022-10-17T17:07:49;6.96;77.92
72756;SHT30;60881;55.002;73.232;2022-10-17T17:10:19;6.82;78.42
72756;SHT30;60881;55.002;73.232;2022-10-17T17:12:50;6.84;78.28
72756;SHT30;60881;55.002;73.232;2022-10-17T17:15:17;6.85;78.41
72756;SHT30;60881;55.002;73.232;2022-10-17T17:17:44;6.84;78.32
72756;SHT30;60881;55.002;73.232;2022-10-17T17:20:11;6.85;78.41
72756;SHT30;60881;55.002;73.232;2022-10-17T17:22:37;6.78;78.68
72756;SHT30;60881;55.002;73.232;2022-10-17T17:25:04;6.71;78.70
72756;SHT30;60881;55.002;73.232;2022-10-17T17:27:30;6.72;78.79
72756;SHT30;60881;55.002;73.232;2022-10-17T17:30:04;6.69;78.47
72756;SHT30;60881;55.002;73.232;2022-10-17T17:32:31;6.59;79.20
72756;SHT30;60881;55.002;73.232;2022-10-17T17:35:03;6.56;79.10